Terminal Aerodrome Forecast
Issued by NWS

Home | Current Version | Previous Version | Text Only | Print | Product List | Glossary On
Versions: 1 2 3 4 5 6 7 8 9 10 11 12 13 14 15 16 17 18 19
000
FTUS45 KABQ 161741
TAFROW
TAF
KROW 161741Z 1618/1718 17005KT 1/2SM FG OVC002
     FM161900 VRB05KT P6SM SCT006
     FM162200 02006KT P6SM FEW030 FEW120
     FM170200 01012KT P6SM BKN030
     FM171500 01005KT P6SM SCT030=

USA.gov is the U.S. government's official web portal to all federal, state and local government web resources and services.